createdAt,value
2017-09-23T00:00:11.242Z,12.40
2017-09-23T00:02:39.497Z,10.93
2017-09-23T00:05:06.979Z,10.47
2017-09-23T00:07:35.236Z,10.07
2017-09-23T00:10:02.734Z,9.00
2017-09-23T00:12:30.226Z,9.30
2017-09-23T00:14:57.717Z,15.50
2017-09-23T00:17:25.195Z,8.00
2017-09-23T00:19:53.445Z,9.73
2017-09-23T00:22:20.917Z,9.33
2017-09-23T00:24:49.162Z,8.00
2017-09-23T00:27:16.651Z,5.93
2017-09-23T00:29:44.899Z,5.67
2017-09-23T00:32:12.384Z,5.90
2017-09-23T00:34:40.630Z,4.90
2017-09-23T00:37:08.116Z,5.80
2017-09-23T00:39:35.598Z,6.03
2017-09-23T00:42:03.086Z,4.80
2017-09-23T00:44:30.571Z,4.70
2017-09-23T00:46:58.063Z,6.10
2017-09-23T00:49:26.306Z,5.53
2017-09-23T00:51:53.805Z,5.53
2017-09-23T00:54:22.046Z,6.30
2017-09-23T00:56:49.517Z,5.13
2017-09-23T00:59:16.998Z,8.90
2017-09-23T01:01:45.239Z,6.17
2017-09-23T01:04:12.718Z,4.80
2017-09-23T01:06:40.190Z,5.07
2017-09-23T01:09:08.429Z,5.90
2017-09-23T01:11:35.907Z,6.17
2017-09-23T01:14:03.386Z,5.17
2017-09-23T01:16:31.635Z,5.43
2017-09-23T01:18:59.110Z,5.20
2017-09-23T01:21:27.359Z,5.37
2017-09-23T01:23:54.843Z,4.90
2017-09-23T01:26:22.322Z,5.80
2017-09-23T01:28:50.563Z,5.10
2017-09-23T01:31:18.810Z,4.90
2017-09-23T01:33:46.297Z,5.77
2017-09-23T01:36:13.779Z,6.37
2017-09-23T01:38:42.032Z,5.80
2017-09-23T01:41:09.527Z,5.33
2017-09-23T01:43:37.785Z,5.27
2017-09-23T01:46:06.036Z,5.27
2017-09-23T01:48:33.524Z,5.17
2017-09-23T01:51:01.766Z,5.10
2017-09-23T01:53:29.246Z,5.27
2017-09-23T01:55:56.726Z,4.80
2017-09-23T01:58:24.965Z,6.40
2017-09-23T02:00:52.435Z,5.80
2017-09-23T02:03:19.913Z,4.77
2017-09-23T02:05:48.158Z,5.20
2017-09-23T02:08:15.635Z,4.87
2017-09-23T02:10:43.101Z,6.50
2017-09-23T02:13:10.578Z,5.60
2017-09-23T02:15:38.836Z,4.40
2017-09-23T02:18:06.314Z,5.20
2017-09-23T02:20:34.559Z,4.47
2017-09-23T02:23:03.822Z,5.87
2017-09-23T02:25:31.307Z,4.10
2017-09-23T02:27:58.776Z,5.00
2017-09-23T02:30:26.246Z,4.63
2017-09-23T02:32:53.726Z,5.23
2017-09-23T02:35:21.984Z,4.57
2017-09-23T02:37:49.462Z,5.20
2017-09-23T02:40:17.702Z,5.23
2017-09-23T02:42:45.183Z,5.57
2017-09-23T02:45:13.433Z,6.70
2017-09-23T02:47:40.915Z,6.10
2017-09-23T02:50:09.166Z,7.97
2017-09-23T02:52:36.640Z,8.60
2017-09-23T02:55:05.634Z,9.60
2017-09-23T02:57:33.114Z,8.83
2017-09-23T03:00:01.359Z,10.63
2017-09-23T03:02:28.839Z,9.80
2017-09-23T03:04:56.331Z,11.83
2017-09-23T03:07:23.820Z,10.93
2017-09-23T03:09:51.297Z,9.30
2017-09-23T03:12:18.774Z,9.83
2017-09-23T03:14:46.251Z,9.40
2017-09-23T03:17:14.505Z,9.60
2017-09-23T03:19:41.986Z,10.00
2017-09-23T03:22:10.247Z,10.27
2017-09-23T03:24:38.498Z,9.37
2017-09-23T03:27:05.988Z,10.10
2017-09-23T03:29:34.243Z,9.33
2017-09-23T03:32:01.735Z,10.23
2017-09-23T03:34:29.983Z,9.37
2017-09-23T03:36:57.473Z,8.70
2017-09-23T03:39:25.732Z,9.07
2017-09-23T03:41:53.993Z,8.77
2017-09-23T03:44:21.474Z,9.40
2017-09-23T03:46:49.722Z,9.10
2017-09-23T03:49:17.202Z,7.50
2017-09-23T03:51:44.684Z,6.97
2017-09-23T03:54:12.159Z,6.57
2017-09-23T03:56:39.653Z,6.57
2017-09-23T03:59:07.144Z,6.83
2017-09-23T04:01:35.390Z,7.10
2017-09-23T04:04:02.905Z,5.73
2017-09-23T04:06:30.373Z,5.40
2017-09-23T04:08:57.866Z,6.40
2017-09-23T04:11:25.355Z,5.37
2017-09-23T04:13:53.596Z,6.13
2017-09-23T04:16:21.073Z,5.10
2017-09-23T04:18:48.554Z,4.53
2017-09-23T04:21:16.793Z,5.13
2017-09-23T04:23:44.284Z,4.90
2017-09-23T04:26:12.542Z,4.80
2017-09-23T04:28:40.033Z,5.80
2017-09-23T04:31:08.284Z,5.83
2017-09-23T04:33:35.766Z,5.03
2017-09-23T04:36:04.010Z,5.80
2017-09-23T04:38:31.491Z,5.57
2017-09-23T04:40:59.734Z,5.43
2017-09-23T04:43:27.210Z,5.27
2017-09-23T04:45:54.696Z,5.70
2017-09-23T04:48:22.952Z,5.30
2017-09-23T04:50:50.426Z,5.60
2017-09-23T04:53:18.741Z,5.47
2017-09-23T04:55:46.228Z,5.20
2017-09-23T04:58:13.716Z,4.80
2017-09-23T05:00:42.907Z,6.20
2017-09-23T05:03:10.394Z,5.63
2017-09-23T05:05:37.875Z,7.27
2017-09-23T05:08:05.363Z,5.97
2017-09-23T05:10:32.850Z,5.43
2017-09-23T05:13:01.102Z,4.50
2017-09-23T05:15:28.583Z,5.67
2017-09-23T05:17:56.065Z,4.77
2017-09-23T05:20:24.300Z,5.83
2017-09-23T05:22:51.778Z,5.00
2017-09-23T05:25:20.038Z,5.30
2017-09-23T05:27:47.522Z,5.03
2017-09-23T05:30:15.778Z,4.97
2017-09-23T05:32:43.271Z,4.47
2017-09-23T05:35:11.523Z,4.20
2017-09-23T05:37:38.998Z,6.37
2017-09-23T05:40:07.256Z,4.40
2017-09-23T05:42:34.729Z,7.80
2017-09-23T05:45:02.982Z,5.57
2017-09-23T05:47:30.466Z,5.00
2017-09-23T05:49:58.715Z,5.00
2017-09-23T05:52:26.185Z,5.23
2017-09-23T05:54:53.665Z,4.63
2017-09-23T05:57:21.907Z,5.40
2017-09-23T05:59:49.394Z,5.80
2017-09-23T06:02:17.638Z,4.90
2017-09-23T06:04:45.114Z,4.63
2017-09-23T06:07:12.584Z,4.37
2017-09-23T06:09:40.834Z,4.13
2017-09-23T06:12:08.314Z,4.40
2017-09-23T06:14:35.792Z,5.47
2017-09-23T06:17:04.043Z,4.73
2017-09-23T06:19:31.517Z,5.40
2017-09-23T06:21:59.759Z,4.80
2017-09-23T06:24:27.245Z,5.53
2017-09-23T06:26:54.715Z,4.90
2017-09-23T06:29:22.214Z,4.60
2017-09-23T06:31:49.683Z,5.80
2017-09-23T06:34:17.194Z,4.80
2017-09-23T06:36:45.443Z,4.70
2017-09-23T06:39:12.931Z,4.13
2017-09-23T06:41:41.173Z,3.90
2017-09-23T06:44:08.660Z,5.13
2017-09-23T06:46:36.918Z,4.03
2017-09-23T06:49:04.407Z,4.27
2017-09-23T06:51:32.656Z,4.70
2017-09-23T06:54:00.129Z,4.63
2017-09-23T06:56:28.383Z,5.50
2017-09-23T06:58:55.857Z,5.27
2017-09-23T07:01:23.332Z,5.30
2017-09-23T07:03:51.591Z,5.37
2017-09-23T07:06:19.108Z,4.97
2017-09-23T07:08:46.591Z,5.07
2017-09-23T07:11:14.075Z,4.70
2017-09-23T07:13:42.321Z,5.43
2017-09-23T07:16:09.793Z,4.50
2017-09-23T07:18:37.277Z,5.07
2017-09-23T07:21:05.530Z,4.17
2017-09-23T07:23:33.013Z,4.50
2017-09-23T07:26:01.260Z,4.47
2017-09-23T07:28:28.743Z,5.07
2017-09-23T07:30:56.994Z,5.00
2017-09-23T07:33:24.475Z,4.53
2017-09-23T07:35:52.725Z,5.00
2017-09-23T07:38:20.216Z,5.43
2017-09-23T07:40:48.466Z,5.40
2017-09-23T07:43:15.954Z,4.20
2017-09-23T07:45:44.203Z,5.57
2017-09-23T07:48:11.699Z,5.53
2017-09-23T07:50:39.946Z,5.23
2017-09-23T07:53:07.440Z,4.90
2017-09-23T07:55:34.934Z,5.00
2017-09-23T07:58:02.419Z,5.40
2017-09-23T08:00:29.903Z,5.43
2017-09-23T08:02:58.151Z,4.93
2017-09-23T08:05:25.639Z,5.90
2017-09-23T08:07:54.073Z,6.53
2017-09-23T08:10:21.551Z,7.30
2017-09-23T08:12:49.039Z,5.80
2017-09-23T08:15:17.273Z,6.10
2017-09-23T08:17:44.763Z,5.80
2017-09-23T08:20:12.999Z,6.20
2017-09-23T08:22:40.488Z,6.50
2017-09-23T08:25:07.974Z,9.10
2017-09-23T08:27:36.226Z,8.83
2017-09-23T08:30:03.697Z,9.07
2017-09-23T08:32:31.952Z,10.77
2017-09-23T08:34:59.452Z,14.83
2017-09-23T08:37:26.949Z,14.03
2017-09-23T08:39:54.442Z,19.03
2017-09-23T08:42:21.939Z,17.37
2017-09-23T08:44:49.421Z,24.87
2017-09-23T08:47:16.899Z,21.23
2017-09-23T08:49:44.387Z,8.90
2017-09-23T08:52:12.662Z,20.00
2017-09-23T08:54:40.915Z,19.07
2017-09-23T08:57:08.393Z,15.93
2017-09-23T08:59:36.645Z,22.20
2017-09-23T09:02:04.130Z,22.57
2017-09-23T09:04:31.619Z,23.33
2017-09-23T09:06:59.099Z,11.33
2017-09-23T09:09:26.574Z,27.47
2017-09-23T09:11:54.068Z,30.83
2017-09-23T09:14:22.334Z,21.50
2017-09-23T09:16:49.822Z,24.93
2017-09-23T09:19:18.071Z,26.23
2017-09-23T09:21:45.560Z,24.40
2017-09-23T09:24:13.815Z,25.50
2017-09-23T09:26:42.072Z,19.37
2017-09-23T09:29:09.574Z,42.33
2017-09-23T09:31:37.155Z,16.63
2017-09-23T09:34:04.638Z,47.53
2017-09-23T09:36:32.130Z,23.30
2017-09-23T09:39:00.771Z,24.63
2017-09-23T09:41:28.267Z,22.20
2017-09-23T09:43:55.758Z,18.50
2017-09-23T09:46:23.250Z,23.10
2017-09-23T09:48:50.737Z,25.20
2017-09-23T09:51:19.734Z,21.30
2017-09-23T09:53:47.228Z,16.87
2017-09-23T09:56:14.718Z,21.13
2017-09-23T09:58:42.209Z,21.83
2017-09-23T10:01:09.709Z,18.10
2017-09-23T10:03:37.198Z,22.07
2017-09-23T10:06:04.687Z,24.80
2017-09-23T10:08:32.169Z,24.60
2017-09-23T10:11:00.430Z,20.90
2017-09-23T10:13:38.617Z,21.73
2017-09-23T10:16:06.107Z,18.70
2017-09-23T10:18:34.388Z,21.07
2017-09-23T10:21:02.646Z,20.00
2017-09-23T10:23:30.914Z,17.43
2017-09-23T10:25:58.411Z,19.03
2017-09-23T10:28:26.655Z,20.33
2017-09-23T10:30:54.147Z,19.97
2017-09-23T10:33:22.408Z,19.77
2017-09-23T10:35:50.677Z,21.33
2017-09-23T10:38:18.927Z,19.60
2017-09-23T10:40:46.417Z,18.90
2017-09-23T10:43:13.911Z,456.93
2017-09-23T10:45:41.393Z,41.20
2017-09-23T10:48:08.878Z,54.43
2017-09-23T10:50:36.373Z,20.30
2017-09-23T10:53:04.635Z,27.77
2017-09-23T10:55:32.900Z,27.77
2017-09-23T10:58:00.386Z,33.77
2017-09-23T11:00:28.628Z,33.60
2017-09-23T11:02:56.114Z,25.30
2017-09-23T11:05:24.362Z,28.17
2017-09-23T11:07:51.836Z,17.63
2017-09-23T11:10:20.096Z,26.50
2017-09-23T11:12:47.583Z,19.00
2017-09-23T11:15:15.829Z,17.83
2017-09-23T11:17:43.319Z,72.27
2017-09-23T11:20:11.570Z,37.03
2017-09-23T11:22:39.057Z,143.90
2017-09-23T11:25:07.301Z,22.10
2017-09-23T11:27:34.788Z,79.80
2017-09-23T11:30:03.042Z,16.47
2017-09-23T11:32:30.530Z,233.60
2017-09-23T11:34:58.782Z,13.80
2017-09-23T11:37:26.279Z,68.13
2017-09-23T11:39:54.536Z,118.03
2017-09-23T11:42:22.802Z,71.97
2017-09-23T11:44:51.049Z,84.97
2017-09-23T11:47:18.596Z,62.23
2017-09-23T11:49:46.086Z,15.43
2017-09-23T11:52:13.566Z,19.50
2017-09-23T11:54:41.040Z,40.60
2017-09-23T11:57:09.302Z,238.63
2017-09-23T11:59:37.563Z,440.07
2017-09-23T12:02:05.063Z,325.00
2017-09-23T12:04:32.570Z,219.57
2017-09-23T12:07:00.082Z,185.87
2017-09-23T12:09:27.582Z,82.23
2017-09-23T12:11:56.665Z,149.87
2017-09-23T12:14:24.267Z,106.57
2017-09-23T12:16:53.265Z,289.27
2017-09-23T12:19:21.529Z,472.43
2017-09-23T12:21:49.027Z,369.17
2017-09-23T12:24:17.281Z,447.50
2017-09-23T12:26:45.537Z,345.70
2017-09-23T12:29:13.027Z,195.30
2017-09-23T12:31:41.305Z,306.43
2017-09-23T12:34:09.579Z,481.80
2017-09-23T12:36:37.825Z,423.93
2017-09-23T12:39:06.830Z,384.90
2017-09-23T12:41:35.870Z,140.30
2017-09-23T12:44:03.454Z,199.23
2017-09-23T12:46:30.972Z,167.73
2017-09-23T12:48:59.363Z,99.87
2017-09-23T12:51:27.732Z,495.40
2017-09-23T12:53:58.950Z,362.43
2017-09-23T12:56:27.397Z,350.63
2017-09-23T12:58:54.924Z,401.23
2017-09-23T13:01:23.397Z,337.17
2017-09-23T13:03:51.667Z,193.80
2017-09-23T13:06:19.975Z,357.60
2017-09-23T13:08:47.502Z,60.47
2017-09-23T13:11:15.191Z,140.93
2017-09-23T13:13:42.822Z,121.63
2017-09-23T13:16:10.318Z,72.90
2017-09-23T13:18:37.979Z,171.00
2017-09-23T13:21:06.646Z,157.47
2017-09-23T13:23:37.908Z,352.37
2017-09-23T13:26:06.047Z,329.10
2017-09-23T13:28:34.769Z,156.00
2017-09-23T13:31:05.602Z,121.23
2017-09-23T13:33:34.424Z,44.90
2017-09-23T13:36:02.934Z,36.57
2017-09-23T13:38:31.902Z,148.37
2017-09-23T13:41:01.853Z,99.90
2017-09-23T13:43:32.373Z,35.43
2017-09-23T13:46:00.407Z,189.97
2017-09-23T13:48:28.149Z,561.53
2017-09-23T13:50:57.706Z,88.27
2017-09-23T13:53:25.609Z,422.87
2017-09-23T13:55:55.201Z,435.20
2017-09-23T13:58:24.282Z,227.33
2017-09-23T14:00:51.938Z,259.00
2017-09-23T14:03:19.581Z,195.47
2017-09-23T14:05:48.343Z,109.27
2017-09-23T14:08:17.269Z,172.37
2017-09-23T14:10:45.243Z,66.57
2017-09-23T14:13:13.407Z,139.57
2017-09-23T14:15:42.210Z,119.20
2017-09-23T14:18:10.736Z,280.10
2017-09-23T14:20:39.987Z,183.97
2017-09-23T14:23:07.729Z,246.70
2017-09-23T14:25:37.104Z,254.37
2017-09-23T14:28:04.738Z,278.53
2017-09-23T14:30:32.547Z,162.53
2017-09-23T14:33:02.437Z,219.50
2017-09-23T14:35:30.884Z,168.70
2017-09-23T14:37:59.065Z,91.97
2017-09-23T14:40:26.793Z,165.57
2017-09-23T14:42:55.671Z,187.77
2017-09-23T14:45:24.431Z,299.33
2017-09-23T14:47:52.227Z,429.20
2017-09-23T14:50:20.879Z,474.57
2017-09-23T14:52:48.516Z,171.53
2017-09-23T14:55:16.009Z,138.23
2017-09-23T14:57:43.507Z,247.37
2017-09-23T15:00:11.776Z,79.43
2017-09-23T15:02:40.034Z,180.03
2017-09-23T15:05:07.542Z,193.57
2017-09-23T15:07:35.046Z,168.63
2017-09-23T15:10:03.300Z,116.93
2017-09-23T15:12:30.784Z,91.03
2017-09-23T15:14:59.037Z,69.93
2017-09-23T15:17:26.522Z,97.73
2017-09-23T15:19:54.009Z,78.37
2017-09-23T15:22:22.271Z,111.43
2017-09-23T15:24:50.532Z,39.40
2017-09-23T15:27:19.546Z,65.40
2017-09-23T15:29:47.793Z,43.30
2017-09-23T15:32:15.282Z,38.20
2017-09-23T15:34:42.761Z,34.27
2017-09-23T15:37:10.251Z,52.50
2017-09-23T15:39:37.730Z,44.23
2017-09-23T15:42:05.216Z,30.97
2017-09-23T15:44:33.469Z,43.40
2017-09-23T15:47:00.954Z,33.70
2017-09-23T15:49:29.211Z,11.80
2017-09-23T15:51:58.207Z,27.00
2017-09-23T15:54:26.457Z,33.17
2017-09-23T15:56:53.938Z,36.27
2017-09-23T15:59:21.426Z,37.30
2017-09-23T16:01:49.678Z,25.47
2017-09-23T16:04:17.930Z,31.70
2017-09-23T16:06:45.432Z,22.97
2017-09-23T16:09:13.681Z,14.87
2017-09-23T16:11:41.175Z,23.80
2017-09-23T16:14:09.425Z,8.30
2017-09-23T16:16:36.910Z,8.17
2017-09-23T16:19:05.157Z,24.30
2017-09-23T16:21:32.662Z,20.00
2017-09-23T16:24:00.172Z,23.57
2017-09-23T16:26:27.653Z,10.10
2017-09-23T16:28:55.910Z,24.87
2017-09-23T16:31:23.390Z,14.23
2017-09-23T16:33:51.651Z,34.63
2017-09-23T16:36:19.134Z,19.70
2017-09-23T16:38:47.401Z,10.00
2017-09-23T16:41:15.683Z,212.10
2017-09-23T16:43:43.947Z,249.83
2017-09-23T16:46:11.447Z,93.93
2017-09-23T16:48:38.933Z,117.50
2017-09-23T16:51:06.516Z,536.70
2017-09-23T16:53:34.006Z,75.87
2017-09-23T16:56:02.268Z,224.63
2017-09-23T16:58:31.258Z,51.33
2017-09-23T17:00:58.755Z,356.97
2017-09-23T17:03:26.253Z,53.53
2017-09-23T17:05:53.759Z,513.40
2017-09-23T17:08:22.010Z,454.20
2017-09-23T17:10:51.007Z,54.10
2017-09-23T17:13:19.994Z,34.27
2017-09-23T17:15:47.482Z,168.87
2017-09-23T17:18:15.744Z,175.67
2017-09-23T17:20:43.233Z,140.93
2017-09-23T17:23:10.732Z,126.37
2017-09-23T17:25:38.273Z,73.67
2017-09-23T17:28:05.768Z,267.00
2017-09-23T17:30:33.251Z,34.23
2017-09-23T17:33:01.508Z,239.77
2017-09-23T17:35:29.020Z,103.40
2017-09-23T17:37:56.532Z,462.50
2017-09-23T17:40:24.808Z,430.47
2017-09-23T17:42:52.306Z,351.43
2017-09-23T17:45:19.796Z,806.90
2017-09-23T17:47:47.286Z,772.37
2017-09-23T17:50:15.560Z,568.70
2017-09-23T17:52:43.047Z,520.83
2017-09-23T17:55:11.306Z,484.57
2017-09-23T17:57:39.563Z,552.53
2017-09-23T18:00:07.046Z,726.00
2017-09-23T18:02:35.314Z,874.50
2017-09-23T18:05:03.611Z,801.53
2017-09-23T18:07:31.867Z,699.13
2017-09-23T18:10:00.876Z,553.07
2017-09-23T18:12:29.141Z,864.33
2017-09-23T18:14:57.483Z,136.27
2017-09-23T18:17:24.974Z,822.60
2017-09-23T18:19:53.985Z,664.60
2017-09-23T18:22:22.239Z,649.10
2017-09-23T18:24:50.511Z,159.53
2017-09-23T18:27:18.035Z,367.73
2017-09-23T18:29:45.526Z,323.37
2017-09-23T18:32:13.018Z,727.60
2017-09-23T18:34:41.289Z,565.60
2017-09-23T18:37:09.610Z,250.80
2017-09-23T18:39:37.105Z,303.83
2017-09-23T18:42:04.608Z,182.87
2017-09-23T18:44:32.875Z,451.93
2017-09-23T18:47:01.150Z,659.23
2017-09-23T18:49:29.419Z,315.07
2017-09-23T18:51:57.674Z,99.43
2017-09-23T18:54:25.163Z,489.40
2017-09-23T18:56:53.444Z,483.23
2017-09-23T18:59:21.698Z,78.07
2017-09-23T19:01:49.962Z,244.27
2017-09-23T19:04:17.453Z,245.60
2017-09-23T19:06:45.722Z,256.23
2017-09-23T19:09:13.986Z,155.67
2017-09-23T19:11:41.483Z,126.57
2017-09-23T19:14:08.978Z,165.50
2017-09-23T19:16:36.468Z,144.30
2017-09-23T19:19:04.727Z,223.80
2017-09-23T19:21:32.235Z,406.17
2017-09-23T19:23:59.737Z,157.20
2017-09-23T19:26:27.229Z,69.80
2017-09-23T19:28:54.719Z,23.77
2017-09-23T19:31:22.200Z,15.63
2017-09-23T19:33:49.687Z,17.70
2017-09-23T19:36:17.178Z,15.47
2017-09-23T19:38:45.601Z,14.07
2017-09-23T19:41:13.114Z,12.37
2017-09-23T19:43:41.368Z,26.90
2017-09-23T19:46:09.634Z,21.57
2017-09-23T19:48:37.113Z,25.83
2017-09-23T19:51:05.378Z,15.93
2017-09-23T19:53:32.862Z,66.83
2017-09-23T19:56:01.146Z,15.00
2017-09-23T19:58:29.443Z,12.07
2017-09-23T20:00:56.928Z,12.63
2017-09-23T20:03:24.434Z,11.50
2017-09-23T20:05:52.711Z,12.03
2017-09-23T20:08:20.968Z,11.97
2017-09-23T20:10:48.451Z,11.67
2017-09-23T20:13:16.716Z,35.70
2017-09-23T20:15:44.979Z,68.80
2017-09-23T20:18:12.462Z,34.70
2017-09-23T20:20:40.726Z,77.50
2017-09-23T20:23:08.991Z,36.93
2017-09-23T20:25:36.485Z,18.93
2017-09-23T20:28:04.742Z,68.57
2017-09-23T20:30:33.003Z,26.10
2017-09-23T20:33:00.539Z,28.37
2017-09-23T20:35:28.590Z,32.70
2017-09-23T20:37:56.401Z,21.23
2017-09-23T20:40:24.104Z,18.10
2017-09-23T20:42:53.927Z,18.17
2017-09-23T20:45:22.809Z,53.30
2017-09-23T20:47:51.778Z,17.00
2017-09-23T20:50:20.399Z,39.57
2017-09-23T20:52:49.344Z,16.40
2017-09-23T20:55:16.996Z,12.30
2017-09-23T20:57:46.298Z,11.30
2017-09-23T21:00:13.788Z,16.90
2017-09-23T21:02:42.054Z,11.40
2017-09-23T21:05:09.568Z,13.23
2017-09-23T21:07:38.705Z,12.13
2017-09-23T21:10:06.200Z,23.50
2017-09-23T21:12:34.053Z,12.33
2017-09-23T21:15:03.057Z,16.73
2017-09-23T21:17:30.703Z,12.37
2017-09-23T21:19:59.073Z,12.23
2017-09-23T21:22:26.566Z,12.10
2017-09-23T21:24:54.985Z,10.80
2017-09-23T21:27:22.491Z,10.97
2017-09-23T21:29:50.738Z,11.70
2017-09-23T21:32:18.350Z,11.80
2017-09-23T21:34:45.961Z,12.57
2017-09-23T21:37:13.480Z,14.47
2017-09-23T21:39:41.106Z,12.63
2017-09-23T21:42:09.486Z,11.83
2017-09-23T21:44:37.903Z,10.67
2017-09-23T21:47:05.487Z,10.73
2017-09-23T21:49:32.974Z,10.00
2017-09-23T21:52:00.471Z,10.40
2017-09-23T21:54:27.956Z,10.30
2017-09-23T21:56:55.434Z,9.03
2017-09-23T21:59:22.918Z,8.97
2017-09-23T22:01:51.179Z,9.63
2017-09-23T22:04:18.672Z,9.40
2017-09-23T22:06:46.937Z,11.00
2017-09-23T22:09:14.462Z,10.10
2017-09-23T22:11:41.951Z,9.20
2017-09-23T22:14:10.202Z,8.60
2017-09-23T22:16:37.685Z,8.23
2017-09-23T22:19:05.940Z,8.57
2017-09-23T22:21:33.429Z,8.20
2017-09-23T22:24:01.670Z,7.80
2017-09-23T22:26:29.149Z,9.37
2017-09-23T22:28:56.635Z,7.53
2017-09-23T22:31:24.888Z,8.03
2017-09-23T22:33:52.362Z,7.90
2017-09-23T22:36:20.596Z,7.73
2017-09-23T22:38:48.085Z,8.07
2017-09-23T22:41:17.079Z,8.73
2017-09-23T22:43:44.568Z,7.90
2017-09-23T22:46:12.055Z,9.00
2017-09-23T22:48:39.535Z,7.60
2017-09-23T22:51:07.027Z,8.40
2017-09-23T22:53:35.279Z,7.80
2017-09-23T22:56:02.765Z,7.83
2017-09-23T22:58:31.005Z,9.17
2017-09-23T23:00:58.507Z,8.13
2017-09-23T23:03:26.759Z,7.73
2017-09-23T23:05:55.808Z,7.70
2017-09-23T23:08:23.295Z,7.80
2017-09-23T23:10:52.055Z,8.07
2017-09-23T23:13:20.273Z,10.43
2017-09-23T23:15:48.851Z,8.10
2017-09-23T23:18:16.891Z,7.07
2017-09-23T23:20:44.509Z,8.00
2017-09-23T23:23:13.396Z,7.70
2017-09-23T23:25:42.655Z,8.63
2017-09-23T23:28:11.208Z,7.20
2017-09-23T23:30:40.245Z,7.47
2017-09-23T23:33:08.700Z,7.00
2017-09-23T23:35:37.397Z,6.70
2017-09-23T23:38:05.738Z,7.90
2017-09-23T23:40:35.032Z,7.47
2017-09-23T23:43:05.403Z,7.13
2017-09-23T23:45:35.143Z,6.70
2017-09-23T23:48:04.597Z,7.40
2017-09-23T23:50:33.388Z,7.37
2017-09-23T23:53:01.680Z,8.20
2017-09-23T23:55:30.534Z,5.70
2017-09-23T23:58:00.129Z,6.63
